createdAt,value
2023-05-07T00:02:05.111Z,11.27
2023-05-07T00:04:37.818Z,17.10
2023-05-07T00:07:06.715Z,13.63
2023-05-07T00:09:35.395Z,24.15
2023-05-07T00:12:05.421Z,19.13
2023-05-07T00:14:34.087Z,14.48
2023-05-07T00:17:02.344Z,12.63
2023-05-07T00:19:30.827Z,17.95
2023-05-07T00:21:59.291Z,11.88
2023-05-07T00:24:27.808Z,13.45
2023-05-07T00:26:59.156Z,10.70
2023-05-07T00:29:29.051Z,13.63
2023-05-07T00:31:57.354Z,14.27
2023-05-07T00:34:26.151Z,14.88
2023-05-07T00:36:54.585Z,20.60
2023-05-07T00:39:23.063Z,13.70
2023-05-07T00:41:52.472Z,17.65
2023-05-07T00:44:21.059Z,14.13
2023-05-07T00:46:51.185Z,12.13
2023-05-07T00:49:20.725Z,12.52
2023-05-07T00:51:49.578Z,16.35
2023-05-07T00:54:18.560Z,18.35
2023-05-07T00:56:47.030Z,14.23
2023-05-07T00:59:15.596Z,16.33
2023-05-07T01:01:43.957Z,13.27
2023-05-07T01:04:13.888Z,14.63
2023-05-07T01:06:43.744Z,10.07
2023-05-07T01:09:13.064Z,15.35
2023-05-07T01:11:42.539Z,15.95
2023-05-07T01:14:11.665Z,18.40
2023-05-07T01:16:42.376Z,23.05
2023-05-07T01:19:14.995Z,19.60
2023-05-07T01:21:47.308Z,13.02
2023-05-07T01:24:17.397Z,13.95
2023-05-07T01:26:46.327Z,10.07
2023-05-07T01:29:14.823Z,14.13
2023-05-07T01:31:45.233Z,13.88
2023-05-07T01:34:16.678Z,10.27
2023-05-07T01:36:46.572Z,12.18
2023-05-07T01:39:17.089Z,10.43
2023-05-07T01:41:45.703Z,11.15
2023-05-07T01:44:15.723Z,9.95
2023-05-07T01:46:44.088Z,10.98
2023-05-07T01:49:12.861Z,11.05
2023-05-07T01:51:42.124Z,8.80
2023-05-07T01:54:10.886Z,9.07
2023-05-07T01:56:40.480Z,10.00
2023-05-07T01:59:09.014Z,12.60
2023-05-07T02:01:37.272Z,11.35
2023-05-07T02:04:06.371Z,9.25
2023-05-07T02:06:34.612Z,12.43
2023-05-07T02:09:03.227Z,12.77
2023-05-07T02:11:31.479Z,13.23
2023-05-07T02:14:01.576Z,10.45
2023-05-07T02:16:30.040Z,9.43
2023-05-07T02:18:59.242Z,11.27
2023-05-07T02:21:29.390Z,12.50
2023-05-07T02:23:59.022Z,9.10
2023-05-07T02:26:27.786Z,8.70
2023-05-07T02:28:56.315Z,12.70
2023-05-07T02:31:25.844Z,8.43
2023-05-07T02:33:54.443Z,8.13
2023-05-07T02:36:22.651Z,10.48
2023-05-07T02:38:51.109Z,15.70
2023-05-07T02:41:19.277Z,9.93
2023-05-07T02:43:47.814Z,10.50
2023-05-07T02:46:16.847Z,10.38
2023-05-07T02:48:46.820Z,8.73
2023-05-07T02:51:15.007Z,8.70
2023-05-07T02:53:43.559Z,15.60
2023-05-07T02:56:11.833Z,6.20
2023-05-07T02:58:41.119Z,12.48
2023-05-07T03:01:09.537Z,14.15
2023-05-07T03:03:38.198Z,11.32
2023-05-07T03:06:08.034Z,7.15
2023-05-07T03:08:37.556Z,17.23
2023-05-07T03:11:05.965Z,9.50
2023-05-07T03:13:34.470Z,10.80
2023-05-07T03:16:02.868Z,9.13
2023-05-07T03:18:31.566Z,14.50
2023-05-07T03:21:00.154Z,8.18
2023-05-07T03:23:30.294Z,8.68
2023-05-07T03:25:58.514Z,11.98
2023-05-07T03:28:27.037Z,8.18
2023-05-07T03:30:55.862Z,9.38
2023-05-07T03:33:24.744Z,9.70
2023-05-07T03:35:53.277Z,12.10
2023-05-07T03:38:21.873Z,14.57
2023-05-07T03:40:51.612Z,11.48
2023-05-07T03:43:20.140Z,12.93
2023-05-07T03:45:48.393Z,9.88
2023-05-07T03:48:17.142Z,11.40
2023-05-07T03:50:45.614Z,11.88
2023-05-07T03:53:14.263Z,15.48
2023-05-07T03:55:42.725Z,8.52
2023-05-07T03:58:12.729Z,10.82
2023-05-07T04:00:41.961Z,10.55
2023-05-07T04:05:39.545Z,8.93
2023-05-07T04:08:08.329Z,13.85
2023-05-07T04:10:36.638Z,11.98
2023-05-07T04:13:05.272Z,10.70
2023-05-07T04:15:35.189Z,9.40
2023-05-07T04:18:03.849Z,16.80
2023-05-07T04:20:32.081Z,13.48
2023-05-07T04:23:00.624Z,12.32
2023-05-07T04:25:28.822Z,18.17
2023-05-07T04:27:58.206Z,20.55
2023-05-07T04:30:26.518Z,14.82
2023-05-07T04:32:57.253Z,12.90
2023-05-07T04:35:25.810Z,12.15
2023-05-07T04:37:54.448Z,25.90
2023-05-07T04:40:23.164Z,13.15
2023-05-07T04:42:52.361Z,17.25
2023-05-07T04:45:20.606Z,14.10
2023-05-07T04:47:49.269Z,14.85
2023-05-07T04:50:20.425Z,17.42
2023-05-07T04:52:48.890Z,12.32
2023-05-07T04:55:17.198Z,12.10
2023-05-07T04:57:46.363Z,15.02
2023-05-07T05:00:15.412Z,16.02
2023-05-07T05:02:44.279Z,16.42
2023-05-07T05:05:12.625Z,11.38
2023-05-07T05:07:42.529Z,17.58
2023-05-07T05:10:11.457Z,10.43
2023-05-07T05:12:40.224Z,16.40
2023-05-07T05:15:10.062Z,11.07
2023-05-07T05:17:38.605Z,13.93
2023-05-07T05:20:08.235Z,13.95
2023-05-07T05:22:37.234Z,11.90
2023-05-07T05:25:07.606Z,13.40
2023-05-07T05:27:37.031Z,10.70
2023-05-07T05:30:06.775Z,14.38
2023-05-07T05:32:35.358Z,11.95
2023-05-07T05:35:03.650Z,21.20
2023-05-07T05:37:32.492Z,17.05
2023-05-07T05:40:01.001Z,12.18
2023-05-07T05:42:30.946Z,20.35
2023-05-07T05:44:59.325Z,16.88
2023-05-07T05:47:27.887Z,15.32
2023-05-07T05:49:56.117Z,20.48
2023-05-07T05:52:25.091Z,20.65
2023-05-07T05:54:53.732Z,14.68
2023-05-07T05:57:22.232Z,12.07
2023-05-07T05:59:51.962Z,14.73
2023-05-07T06:02:20.548Z,12.27
2023-05-07T06:04:49.013Z,13.88
2023-05-07T06:07:17.716Z,14.77
2023-05-07T06:09:46.236Z,12.38
2023-05-07T06:12:14.871Z,11.68
2023-05-07T06:14:45.138Z,17.80
2023-05-07T06:17:15.033Z,13.60
2023-05-07T06:19:43.253Z,11.00
2023-05-07T06:22:11.877Z,6.95
2023-05-07T06:24:40.134Z,11.25
2023-05-07T06:27:08.740Z,11.02
2023-05-07T06:29:37.185Z,12.93
2023-05-07T06:32:09.176Z,8.60
2023-05-07T06:34:39.170Z,11.55
2023-05-07T06:37:08.222Z,11.88
2023-05-07T06:39:36.552Z,12.30
2023-05-07T06:42:05.658Z,9.30
2023-05-07T06:44:34.071Z,13.70
2023-05-07T06:47:02.847Z,9.40
2023-05-07T06:49:31.119Z,7.97
2023-05-07T06:52:01.034Z,9.23
2023-05-07T06:54:29.375Z,8.70
2023-05-07T06:56:58.012Z,6.22
2023-05-07T06:59:26.560Z,9.30
2023-05-07T07:01:55.180Z,14.77
2023-05-07T07:04:25.385Z,11.57
2023-05-07T07:06:54.991Z,10.13
2023-05-07T07:09:24.659Z,11.73
2023-05-07T07:11:53.321Z,11.52
2023-05-07T07:14:21.599Z,11.88
2023-05-07T07:16:50.176Z,11.05
2023-05-07T07:19:19.032Z,13.40
2023-05-07T07:21:47.711Z,16.02
2023-05-07T07:24:20.287Z,9.85
2023-05-07T07:26:50.507Z,5.95
2023-05-07T07:29:19.685Z,11.40
2023-05-07T07:31:49.942Z,6.45
2023-05-07T07:34:18.297Z,6.47
2023-05-07T07:36:47.159Z,6.88
2023-05-07T07:39:15.607Z,10.10
2023-05-07T07:41:44.355Z,9.32
2023-05-07T07:44:16.104Z,6.57
2023-05-07T07:46:45.310Z,6.57
2023-05-07T07:49:13.615Z,6.55
2023-05-07T07:51:42.164Z,6.32
2023-05-07T07:54:10.474Z,6.38
2023-05-07T07:56:39.047Z,5.93
2023-05-07T07:59:07.390Z,6.93
2023-05-07T08:01:37.396Z,8.40
2023-05-07T08:04:06.839Z,5.25
2023-05-07T08:06:35.649Z,5.45
2023-05-07T08:09:03.967Z,9.32
2023-05-07T08:11:32.640Z,6.13
2023-05-07T08:14:01.265Z,3.47
2023-05-07T08:16:31.128Z,2.90
2023-05-07T08:19:00.917Z,4.85
2023-05-07T08:21:29.611Z,3.03
2023-05-07T08:23:57.865Z,5.25
2023-05-07T08:26:26.799Z,2.92
2023-05-07T08:28:55.051Z,2.92
2023-05-07T08:31:23.775Z,2.72
2023-05-07T08:33:52.435Z,1.67
2023-05-07T08:36:22.267Z,5.57
2023-05-07T08:38:50.671Z,4.53
2023-05-07T08:41:19.229Z,4.95
2023-05-07T08:43:50.096Z,3.00
2023-05-07T08:46:20.754Z,6.65
2023-05-07T08:48:51.194Z,5.30
2023-05-07T08:51:22.532Z,2.67
2023-05-07T08:53:52.264Z,5.18
2023-05-07T08:56:22.418Z,4.18
2023-05-07T08:58:51.200Z,2.53
2023-05-07T09:01:20.008Z,6.43
2023-05-07T09:03:49.118Z,3.22
2023-05-07T09:06:18.523Z,5.70
2023-05-07T09:08:52.872Z,3.20
2023-05-07T09:11:24.708Z,6.88
2023-05-07T09:13:56.842Z,3.17
2023-05-07T09:16:28.433Z,3.78
2023-05-07T09:18:57.350Z,4.03
2023-05-07T09:21:25.975Z,2.58
2023-05-07T09:23:57.409Z,7.85
2023-05-07T09:26:26.813Z,7.28
2023-05-07T09:28:55.145Z,6.28
2023-05-07T09:31:26.136Z,1.95
2023-05-07T09:33:56.935Z,3.38
2023-05-07T09:36:25.632Z,1.88
2023-05-07T09:38:55.384Z,3.30
2023-05-07T09:41:24.791Z,3.70
2023-05-07T09:43:57.042Z,14.75
2023-05-07T09:46:30.069Z,2.95
2023-05-07T09:49:03.570Z,12.48
2023-05-07T09:51:36.194Z,4.85
2023-05-07T09:54:07.567Z,2.60
2023-05-07T09:56:38.799Z,3.95
2023-05-07T09:59:09.141Z,3.88
2023-05-07T10:01:39.631Z,2.33
2023-05-07T10:04:09.416Z,2.95
2023-05-07T10:06:38.725Z,5.15
2023-05-07T10:09:08.769Z,4.50
2023-05-07T10:11:37.943Z,2.70
2023-05-07T10:14:07.615Z,3.75
2023-05-07T10:16:38.868Z,2.63
2023-05-07T10:19:07.713Z,3.17
2023-05-07T10:21:38.960Z,5.53
2023-05-07T10:24:15.091Z,4.45
2023-05-07T10:26:45.560Z,3.40
2023-05-07T10:29:20.472Z,3.40
2023-05-07T10:31:58.243Z,2.00
2023-05-07T10:34:31.927Z,3.83
2023-05-07T10:37:01.260Z,3.20
2023-05-07T10:39:31.760Z,7.32
2023-05-07T10:42:10.054Z,3.65
2023-05-07T10:44:38.942Z,3.65
2023-05-07T10:47:10.608Z,2.10
2023-05-07T10:49:59.927Z,8.50
2023-05-07T10:52:28.543Z,2.60
2023-05-07T10:55:27.077Z,4.03
2023-05-07T10:57:55.987Z,3.15
2023-05-07T11:00:44.034Z,3.28
2023-05-07T11:03:12.936Z,3.08
2023-05-07T11:05:41.665Z,2.15
2023-05-07T11:08:11.533Z,4.68
2023-05-07T11:10:57.989Z,2.60
2023-05-07T11:13:46.338Z,10.82
2023-05-07T11:16:21.945Z,3.47
2023-05-07T11:18:51.455Z,8.05
2023-05-07T11:21:39.342Z,1.80
2023-05-07T11:24:08.771Z,4.80
2023-05-07T11:26:52.162Z,1.77
2023-05-07T11:29:23.140Z,4.22
2023-05-07T11:31:53.042Z,5.30
2023-05-07T11:34:25.650Z,2.95
2023-05-07T11:36:54.813Z,4.00
2023-05-07T11:39:27.607Z,2.50
2023-05-07T11:41:57.336Z,2.53
2023-05-07T11:44:25.984Z,6.38
2023-05-07T11:46:54.232Z,3.80
2023-05-07T11:49:22.831Z,5.57
2023-05-07T11:51:51.140Z,3.25
2023-05-07T11:54:19.699Z,4.32
2023-05-07T11:56:48.508Z,6.03
2023-05-07T11:59:21.263Z,5.20
2023-05-07T12:01:50.153Z,3.63
2023-05-07T12:04:23.108Z,3.55
2023-05-07T12:06:56.812Z,4.07
2023-05-07T12:09:25.434Z,2.05
2023-05-07T12:11:54.597Z,2.78
2023-05-07T12:14:24.495Z,3.20
2023-05-07T12:16:53.816Z,5.38
2023-05-07T12:19:23.589Z,2.22
2023-05-07T12:21:52.068Z,1.95
2023-05-07T12:24:21.863Z,3.35
2023-05-07T12:26:50.608Z,2.40
2023-05-07T12:29:19.347Z,4.53
2023-05-07T12:31:49.241Z,5.18
2023-05-07T12:34:18.004Z,7.03
2023-05-07T12:36:46.293Z,3.55
2023-05-07T12:39:14.869Z,2.90
2023-05-07T12:41:56.557Z,4.22
2023-05-07T12:44:25.722Z,5.22
2023-05-07T12:46:56.154Z,4.47
2023-05-07T12:49:26.017Z,3.53
2023-05-07T12:51:55.474Z,3.28
2023-05-07T12:54:31.417Z,2.35
2023-05-07T12:57:03.765Z,3.10
2023-05-07T12:59:36.650Z,2.47
2023-05-07T13:02:07.271Z,2.53
2023-05-07T13:04:36.155Z,2.70
2023-05-07T13:07:05.132Z,6.55
2023-05-07T13:09:33.940Z,2.97
2023-05-07T13:12:02.629Z,2.05
2023-05-07T13:14:31.368Z,13.68
2023-05-07T13:16:59.621Z,2.08
2023-05-07T13:19:31.415Z,2.15
2023-05-07T13:21:59.941Z,3.80
2023-05-07T13:24:28.513Z,5.78
2023-05-07T13:26:56.901Z,3.35
2023-05-07T13:29:29.716Z,1.90
2023-05-07T13:31:59.534Z,2.95
2023-05-07T13:34:30.870Z,4.80
2023-05-07T13:36:59.279Z,1.63
2023-05-07T13:39:27.897Z,1.77
2023-05-07T13:41:56.309Z,2.03
2023-05-07T13:44:25.044Z,3.10
2023-05-07T13:46:53.453Z,4.53
2023-05-07T13:49:22.129Z,4.03
2023-05-07T13:51:51.856Z,1.23
2023-05-07T13:54:20.473Z,1.88
2023-05-07T13:56:48.918Z,2.55
2023-05-07T13:59:17.705Z,2.45
2023-05-07T14:01:46.081Z,1.92
2023-05-07T14:04:14.996Z,3.10
2023-05-07T14:06:43.322Z,3.55
2023-05-07T14:09:14.330Z,3.38
2023-05-07T14:11:43.067Z,5.45
2023-05-07T14:14:12.717Z,2.47
2023-05-07T14:16:41.062Z,3.83
2023-05-07T14:19:09.636Z,3.50
2023-05-07T14:21:38.268Z,3.55
2023-05-07T14:24:08.971Z,2.20
2023-05-07T14:26:38.639Z,6.68
2023-05-07T14:29:07.215Z,2.78
2023-05-07T14:31:35.481Z,2.88
2023-05-07T14:34:04.222Z,2.80
2023-05-07T14:36:32.810Z,3.80
2023-05-07T14:39:01.491Z,3.58
2023-05-07T14:41:29.937Z,4.05
2023-05-07T14:44:00.022Z,6.60
2023-05-07T14:46:28.640Z,2.85
2023-05-07T14:48:57.275Z,3.63
2023-05-07T14:51:27.013Z,2.88
2023-05-07T14:53:55.764Z,2.83
2023-05-07T14:56:24.137Z,2.47
2023-05-07T14:58:52.823Z,4.55
2023-05-07T15:01:22.797Z,3.30
2023-05-07T15:03:51.570Z,2.95
2023-05-07T15:06:19.878Z,1.98
2023-05-07T15:08:49.571Z,5.97
2023-05-07T15:11:17.827Z,2.53
2023-05-07T15:13:46.368Z,2.08
2023-05-07T15:16:15.399Z,3.17
2023-05-07T15:18:45.507Z,9.52
2023-05-07T15:21:14.095Z,4.25
2023-05-07T15:23:43.343Z,4.00
2023-05-07T15:26:11.733Z,4.78
2023-05-07T15:28:40.737Z,2.25
2023-05-07T15:31:10.205Z,2.38
2023-05-07T15:33:38.763Z,4.57
2023-05-07T15:36:08.932Z,6.78
2023-05-07T15:38:37.463Z,3.58
2023-05-07T15:41:06.005Z,2.55
2023-05-07T15:43:34.673Z,2.78
2023-05-07T15:46:02.976Z,2.92
2023-05-07T15:48:31.674Z,2.15
2023-05-07T15:51:01.180Z,3.60
2023-05-07T15:53:31.371Z,4.25
2023-05-07T15:55:59.654Z,4.82
2023-05-07T15:58:28.872Z,8.27
2023-05-07T16:00:57.248Z,4.68
2023-05-07T16:03:25.814Z,2.63
2023-05-07T16:05:54.315Z,3.38
2023-05-07T16:08:22.767Z,2.80
2023-05-07T16:10:52.503Z,2.17
2023-05-07T16:13:21.277Z,3.72
2023-05-07T16:15:49.711Z,1.63
2023-05-07T16:18:18.363Z,6.00
2023-05-07T16:20:47.413Z,3.75
2023-05-07T16:23:15.945Z,2.55
2023-05-07T16:25:44.656Z,3.35
2023-05-07T16:28:31.062Z,2.40
2023-05-07T16:30:59.422Z,2.15
2023-05-07T16:33:27.975Z,3.58
2023-05-07T16:35:56.264Z,3.53
2023-05-07T16:38:26.964Z,3.38
2023-05-07T16:40:55.576Z,3.83
2023-05-07T16:43:25.560Z,3.35
2023-05-07T16:45:54.127Z,2.28
2023-05-07T16:48:22.836Z,2.72
2023-05-07T16:50:51.270Z,3.08
2023-05-07T16:53:20.446Z,5.97
2023-05-07T16:55:48.981Z,4.25
2023-05-07T16:58:18.192Z,5.45
2023-05-07T17:00:51.042Z,10.38
2023-05-07T17:03:20.543Z,4.70
2023-05-07T17:05:49.147Z,4.88
2023-05-07T17:08:17.767Z,5.05
2023-05-07T17:10:46.263Z,2.60
2023-05-07T17:13:15.218Z,5.75
2023-05-07T17:15:45.297Z,4.18
2023-05-07T17:18:15.543Z,4.45
2023-05-07T17:20:43.953Z,2.83
2023-05-07T17:23:13.372Z,1.75
2023-05-07T17:25:45.497Z,8.43
2023-05-07T17:28:14.169Z,2.92
2023-05-07T17:30:42.568Z,4.07
2023-05-07T17:33:20.738Z,3.67
2023-05-07T17:35:51.019Z,5.25
2023-05-07T17:38:19.520Z,3.42
2023-05-07T17:40:48.507Z,3.67
2023-05-07T17:43:17.474Z,3.92
2023-05-07T17:45:45.920Z,3.17
2023-05-07T17:48:14.485Z,3.13
2023-05-07T17:50:43.062Z,2.30
2023-05-07T17:53:13.046Z,3.92
2023-05-07T17:55:43.878Z,3.40
2023-05-07T17:58:13.002Z,4.43
2023-05-07T18:00:41.284Z,5.20
2023-05-07T18:03:10.130Z,3.60
2023-05-07T18:05:39.510Z,2.08
2023-05-07T18:08:08.405Z,7.03
2023-05-07T18:10:38.371Z,3.55
2023-05-07T18:13:07.050Z,8.68
2023-05-07T18:15:36.589Z,3.47
2023-05-07T18:18:05.979Z,7.82
2023-05-07T18:20:34.312Z,2.67
2023-05-07T18:23:03.959Z,2.72
2023-05-07T18:25:32.614Z,2.03
2023-05-07T18:28:02.746Z,4.07
2023-05-07T18:30:31.198Z,2.63
2023-05-07T18:32:59.901Z,4.00
2023-05-07T18:35:28.127Z,5.35
2023-05-07T18:37:56.690Z,2.45
2023-05-07T18:40:25.262Z,4.80
2023-05-07T18:42:53.983Z,2.58
2023-05-07T18:45:23.720Z,3.00
2023-05-07T18:47:52.395Z,3.05
2023-05-07T18:50:20.852Z,2.92
2023-05-07T18:52:49.391Z,4.10
2023-05-07T18:55:18.182Z,3.22
2023-05-07T18:57:46.679Z,3.28
2023-05-07T19:00:16.271Z,4.25
2023-05-07T19:02:46.203Z,2.78
2023-05-07T19:05:14.482Z,4.90
2023-05-07T19:07:43.242Z,3.53
2023-05-07T19:10:11.693Z,5.60
2023-05-07T19:12:40.613Z,4.60
2023-05-07T19:15:10.146Z,8.65
2023-05-07T19:17:38.747Z,5.57
2023-05-07T19:20:10.760Z,2.78
2023-05-07T19:22:39.544Z,5.35
2023-05-07T19:25:09.931Z,3.92
2023-05-07T19:27:38.592Z,8.32
2023-05-07T19:30:09.038Z,7.35
2023-05-07T19:32:37.570Z,9.07
2023-05-07T19:35:06.634Z,6.60
2023-05-07T19:37:36.517Z,4.95
2023-05-07T19:40:06.606Z,8.63
2023-05-07T19:42:35.208Z,10.60
2023-05-07T19:45:04.284Z,7.25
2023-05-07T19:47:33.117Z,5.40
2023-05-07T19:50:01.583Z,11.02
2023-05-07T19:52:30.158Z,4.47
2023-05-07T19:54:59.790Z,6.30
2023-05-07T19:57:28.322Z,6.85
2023-05-07T19:59:56.598Z,7.28
2023-05-07T20:02:25.292Z,4.22
2023-05-07T20:04:55.175Z,7.25
2023-05-07T20:07:23.679Z,6.70
2023-05-07T20:09:51.839Z,9.55
2023-05-07T20:12:22.215Z,5.28
2023-05-07T20:14:50.421Z,6.68
2023-05-07T20:17:19.791Z,7.53
2023-05-07T20:19:48.090Z,5.82
2023-05-07T20:22:16.655Z,7.95
2023-05-07T20:24:44.883Z,16.15
2023-05-07T20:27:13.475Z,18.77
2023-05-07T20:29:42.975Z,13.93
2023-05-07T20:32:11.539Z,10.38
2023-05-07T20:34:39.828Z,12.90
2023-05-07T20:37:11.828Z,9.80
2023-05-07T20:39:40.026Z,9.70
2023-05-07T20:42:08.594Z,6.95
2023-05-07T20:44:37.163Z,10.80
2023-05-07T20:47:07.196Z,12.20
2023-05-07T20:49:35.908Z,16.63
2023-05-07T20:52:04.556Z,14.07
2023-05-07T20:54:32.811Z,17.67
2023-05-07T20:57:01.803Z,11.25
2023-05-07T20:59:30.075Z,7.68
2023-05-07T21:01:58.585Z,7.20
2023-05-07T21:04:28.240Z,11.88
2023-05-07T21:06:56.837Z,7.22
2023-05-07T21:09:25.108Z,8.90
2023-05-07T21:11:54.048Z,8.70
2023-05-07T21:14:22.279Z,8.98
2023-05-07T21:16:50.846Z,10.15
2023-05-07T21:19:19.259Z,8.40
2023-05-07T21:21:49.173Z,8.85
2023-05-07T21:24:17.534Z,6.93
2023-05-07T21:26:46.213Z,5.88
2023-05-07T21:29:14.599Z,8.52
2023-05-07T21:31:43.234Z,6.78
2023-05-07T21:34:11.473Z,11.65
2023-05-07T21:36:39.928Z,12.07
2023-05-07T21:39:09.776Z,7.80
2023-05-07T21:41:38.457Z,9.00
2023-05-07T21:44:06.857Z,11.02
2023-05-07T21:46:35.439Z,9.48
2023-05-07T21:49:03.871Z,11.43
2023-05-07T21:51:34.550Z,8.70
2023-05-07T21:54:06.767Z,9.57
2023-05-07T21:56:36.572Z,6.43
2023-05-07T21:59:04.810Z,7.50
2023-05-07T22:01:33.288Z,7.90
2023-05-07T22:04:01.726Z,6.88
2023-05-07T22:06:31.314Z,6.07
2023-05-07T22:08:59.618Z,8.80
2023-05-07T22:11:28.239Z,8.10
2023-05-07T22:13:57.810Z,8.88
2023-05-07T22:16:26.301Z,7.90
2023-05-07T22:18:54.462Z,8.70
2023-05-07T22:21:22.973Z,6.78
2023-05-07T22:23:51.181Z,8.82
2023-05-07T22:26:19.693Z,9.43
2023-05-07T22:28:47.793Z,8.75
2023-05-07T22:31:17.742Z,11.25
2023-05-07T22:33:46.271Z,11.07
2023-05-07T22:36:14.755Z,7.72
2023-05-07T22:38:42.923Z,8.98
2023-05-07T22:41:11.457Z,14.38
2023-05-07T22:43:40.309Z,10.02
2023-05-07T22:46:08.962Z,9.30
2023-05-07T22:48:38.660Z,16.67
2023-05-07T22:51:07.171Z,11.68
2023-05-07T22:53:35.321Z,9.07
2023-05-07T22:56:07.586Z,14.85
2023-05-07T22:58:35.936Z,8.82
2023-05-07T23:01:04.703Z,10.35
2023-05-07T23:03:32.973Z,10.40
2023-05-07T23:06:03.715Z,10.60
2023-05-07T23:08:31.866Z,9.20
2023-05-07T23:11:00.336Z,12.63
2023-05-07T23:13:28.616Z,10.90
2023-05-07T23:15:58.847Z,9.00
2023-05-07T23:18:28.014Z,10.20
2023-05-07T23:20:56.582Z,6.72
2023-05-07T23:23:26.324Z,13.90
2023-05-07T23:25:54.754Z,13.35
2023-05-07T23:28:22.958Z,11.73
2023-05-07T23:30:51.434Z,7.32
2023-05-07T23:33:19.666Z,11.60
2023-05-07T23:35:48.728Z,8.35
2023-05-07T23:38:16.947Z,10.50
2023-05-07T23:40:46.832Z,8.93
2023-05-07T23:43:15.029Z,10.38
2023-05-07T23:45:44.695Z,9.40
2023-05-07T23:48:12.982Z,10.20
2023-05-07T23:50:41.450Z,9.85
2023-05-07T23:53:09.742Z,13.25
2023-05-07T23:55:38.329Z,7.45
2023-05-07T23:58:07.909Z,13.05
